This is the latest recevied weather packets stored in our database for station/object IU2EVW-13. If no packets are shown the sender has not sent any weather packets the latest 10 day(s).
| Time | Temp. | Humidity | Pressure | Rain* | Wind** | Luminosity | Snow |
|---|---|---|---|---|---|---|---|
| 1787900735 | 20° C | 84% | 1020.3 hPa | - | - | - | - |
| 1787899534 | 20° C | 84% | 1020.7 hPa | - | - | - | - |
| 1787898333 | 20° C | 85% | 1022 hPa | - | - | - | - |
| 1787897131 | 19.44° C | 85% | 1021.6 hPa | - | - | - | - |
| 1787895930 | 18.33° C | 92% | 1022.4 hPa | - | - | - | - |
| 1787894729 | 19.44° C | 83% | 1020.7 hPa | - | - | - | - |
| 1787893527 | 19.44° C | 85% | 1020.5 hPa | - | - | - | - |
| 1787892326 | 19.44° C | 82% | 1020.5 hPa | - | - | - | - |
| 1787891125 | 19.44° C | 79% | 1020.5 hPa | - | - | - | - |
| 1787889923 | 20° C | 78% | 1020.3 hPa | - | - | - | - |
| 1787888722 | 20° C | 78% | 1020.5 hPa | - | - | - | - |
| 1787887521 | 20.56° C | 75% | 1020.3 hPa | - | - | - | - |
| 1787886320 | 20.56° C | 73% | 1020.2 hPa | - | - | - | - |
| 1787885118 | 21.11° C | 70% | 1020.9 hPa | - | - | - | - |
| 1787883917 | 20.56° C | 73% | 1021.1 hPa | - | - | - | - |
| 1787882716 | 20.56° C | 74% | 1021.4 hPa | - | - | - | - |
| 1787881515 | 20.56° C | 73% | 1021.1 hPa | - | - | - | - |
| 1787880313 | 20.56° C | 70% | 1020.8 hPa | - | - | - | - |
| 1787879112 | 20.56° C | 74% | 1021.1 hPa | - | - | - | - |
| 1787877911 | 20.56° C | 73% | 1021.1 hPa | - | - | - | - |
| 1787876710 | 21.11° C | 69% | 1021.4 hPa | - | - | - | - |
| 1787875508 | 21.67° C | 69% | 1021.7 hPa | - | - | - | - |
| 1787874307 | 21.67° C | 68% | 1022 hPa | - | - | - | - |
| 1787873106 | 21.67° C | 66% | 1021.9 hPa | - | - | - | - |
| 1787871904 | 21.67° C | 65% | 1021.7 hPa | - | - | - | - |
* Rain since midnight (hover to see other rain measurements)
** Current wind speed in m/s (hover to see current wind gust speed)